createdAt,value
2023-03-22T00:02:16.323Z,9.97
2023-03-22T00:04:45.712Z,10.60
2023-03-22T00:07:13.728Z,10.73
2023-03-22T00:09:41.860Z,8.40
2023-03-22T00:12:09.879Z,10.00
2023-03-22T00:14:37.989Z,10.00
2023-03-22T00:17:05.968Z,10.60
2023-03-22T00:19:34.447Z,8.70
2023-03-22T00:22:06.059Z,9.10
2023-03-22T00:24:34.041Z,9.83
2023-03-22T00:27:02.214Z,8.80
2023-03-22T00:29:30.236Z,8.10
2023-03-22T00:31:58.210Z,10.10
2023-03-22T00:34:27.058Z,9.60
2023-03-22T00:36:56.169Z,8.50
2023-03-22T00:39:26.874Z,8.93
2023-03-22T00:41:54.907Z,8.33
2023-03-22T00:44:22.916Z,8.93
2023-03-22T00:46:50.908Z,7.90
2023-03-22T00:49:19.422Z,7.20
2023-03-22T00:51:47.416Z,6.57
2023-03-22T00:54:16.916Z,8.03
2023-03-22T00:56:46.305Z,7.63
2023-03-22T00:59:15.410Z,7.40
2023-03-22T01:01:43.889Z,7.30
2023-03-22T01:04:15.359Z,5.30
2023-03-22T01:06:43.335Z,6.20
2023-03-22T01:09:14.756Z,6.83
2023-03-22T01:11:43.518Z,5.70
2023-03-22T01:14:13.807Z,5.83
2023-03-22T01:16:41.990Z,6.33
2023-03-22T01:19:10.193Z,6.17
2023-03-22T01:21:38.191Z,8.47
2023-03-22T01:24:06.889Z,6.60
2023-03-22T01:26:37.929Z,6.47
2023-03-22T01:29:06.197Z,6.23
2023-03-22T01:31:35.765Z,6.17
2023-03-22T01:34:03.780Z,6.17
2023-03-22T01:36:31.923Z,5.70
2023-03-22T01:39:00.302Z,6.27
2023-03-22T01:41:28.349Z,5.20
2023-03-22T01:44:11.512Z,5.60
2023-03-22T01:46:41.220Z,6.50
2023-03-22T01:49:13.911Z,6.20
2023-03-22T01:51:43.899Z,5.57
2023-03-22T01:54:18.294Z,5.17
2023-03-22T01:56:46.765Z,5.93
2023-03-22T01:59:16.258Z,6.17
2023-03-22T02:01:46.993Z,6.43
2023-03-22T02:04:20.923Z,6.80
2023-03-22T02:06:49.972Z,7.10
2023-03-22T02:09:22.752Z,7.70
2023-03-22T02:12:00.220Z,7.20
2023-03-22T02:14:58.495Z,6.87
2023-03-22T02:17:37.794Z,6.70
2023-03-22T02:21:07.102Z,6.50
2023-03-22T02:24:14.048Z,5.57
2023-03-22T02:27:09.037Z,5.83
2023-03-22T02:29:45.235Z,6.40
2023-03-22T02:32:53.770Z,6.00
2023-03-22T02:35:56.825Z,8.00
2023-03-22T02:39:04.716Z,6.70
2023-03-22T02:41:46.956Z,6.80
2023-03-22T02:44:25.498Z,6.50
2023-03-22T02:47:01.408Z,7.87
2023-03-22T02:49:36.648Z,6.70
2023-03-22T02:52:17.162Z,8.43
2023-03-22T02:54:54.089Z,8.60
2023-03-22T02:57:31.076Z,7.97
2023-03-22T03:00:00.730Z,7.93
2023-03-22T03:02:29.968Z,8.17
2023-03-22T03:04:59.024Z,9.00
2023-03-22T03:07:29.029Z,7.43
2023-03-22T03:09:59.183Z,7.63
2023-03-22T03:12:30.175Z,10.33
2023-03-22T03:14:58.423Z,7.67
2023-03-22T03:17:42.411Z,8.00
2023-03-22T03:20:30.002Z,9.23
2023-03-22T03:23:19.801Z,9.10
2023-03-22T03:25:59.280Z,9.47
2023-03-22T03:28:38.427Z,10.40
2023-03-22T03:31:21.651Z,10.13
2023-03-22T03:33:58.356Z,9.60
2023-03-22T03:36:28.380Z,9.93
2023-03-22T03:38:58.866Z,9.30
2023-03-22T03:41:31.126Z,9.60
2023-03-22T03:44:00.568Z,9.17
2023-03-22T03:46:29.361Z,8.90
2023-03-22T03:48:59.240Z,10.00
2023-03-22T03:51:29.383Z,9.60
2023-03-22T03:53:57.384Z,9.93
2023-03-22T03:56:26.007Z,10.00
2023-03-22T03:58:55.636Z,11.17
2023-03-22T04:01:24.032Z,8.30
2023-03-22T04:03:55.354Z,9.23
2023-03-22T04:06:23.469Z,8.77
2023-03-22T04:08:53.509Z,10.30
2023-03-22T04:11:21.699Z,9.70
2023-03-22T04:13:49.628Z,10.23
2023-03-22T04:16:19.038Z,9.50
2023-03-22T04:18:47.154Z,9.23
2023-03-22T04:21:16.426Z,10.60
2023-03-22T04:23:46.550Z,9.47
2023-03-22T04:26:14.659Z,9.10
2023-03-22T04:28:42.643Z,10.40
2023-03-22T04:31:10.823Z,8.90
2023-03-22T04:33:40.284Z,9.57
2023-03-22T04:36:10.834Z,9.17
2023-03-22T04:38:40.011Z,10.33
2023-03-22T04:41:08.357Z,9.37
2023-03-22T04:43:39.293Z,10.03
2023-03-22T04:46:09.994Z,9.50
2023-03-22T04:48:39.079Z,9.73
2023-03-22T04:51:11.241Z,9.50
2023-03-22T04:53:39.711Z,9.67
2023-03-22T04:56:11.185Z,10.27
2023-03-22T04:58:42.476Z,8.77
2023-03-22T05:01:12.628Z,9.77
2023-03-22T05:03:41.138Z,9.30
2023-03-22T05:06:11.217Z,11.90
2023-03-22T05:08:39.396Z,10.90
2023-03-22T05:11:10.616Z,9.50
2023-03-22T05:13:39.074Z,10.23
2023-03-22T05:16:09.279Z,9.40
2023-03-22T05:18:37.999Z,10.47
2023-03-22T05:21:06.896Z,11.50
2023-03-22T05:23:36.186Z,10.90
2023-03-22T05:26:04.189Z,10.80
2023-03-22T05:28:32.293Z,8.97
2023-03-22T05:31:00.254Z,10.57
2023-03-22T05:33:29.652Z,9.03
2023-03-22T05:35:57.703Z,10.17
2023-03-22T05:38:25.746Z,8.40
2023-03-22T05:40:55.225Z,8.53
2023-03-22T05:43:23.275Z,8.80
2023-03-22T05:45:51.665Z,9.00
2023-03-22T05:48:19.674Z,8.80
2023-03-22T05:50:47.783Z,9.53
2023-03-22T05:53:15.777Z,7.07
2023-03-22T05:55:44.818Z,8.60
2023-03-22T05:58:18.878Z,9.50
2023-03-22T06:00:49.522Z,9.00
2023-03-22T06:03:18.264Z,9.07
2023-03-22T06:05:46.572Z,6.63
2023-03-22T06:08:14.546Z,8.30
2023-03-22T06:10:42.814Z,7.43
2023-03-22T06:13:10.956Z,7.90
2023-03-22T06:15:40.307Z,8.87
2023-03-22T06:18:08.637Z,8.30
2023-03-22T06:20:36.717Z,8.33
2023-03-22T06:23:04.805Z,8.43
2023-03-22T06:25:34.134Z,8.20
2023-03-22T06:28:02.686Z,9.00
2023-03-22T06:30:30.751Z,9.20
2023-03-22T06:33:04.264Z,9.27
2023-03-22T06:35:32.682Z,7.67
2023-03-22T06:38:00.943Z,9.80
2023-03-22T06:40:29.227Z,7.43
2023-03-22T06:42:57.192Z,8.20
2023-03-22T06:45:25.613Z,10.37
2023-03-22T06:47:53.598Z,8.73
2023-03-22T06:50:23.752Z,8.50
2023-03-22T06:52:53.960Z,8.53
2023-03-22T06:55:22.092Z,8.97
2023-03-22T06:57:50.079Z,8.27
2023-03-22T07:00:19.162Z,8.20
2023-03-22T07:02:47.137Z,8.30
2023-03-22T07:05:15.361Z,7.10
2023-03-22T07:07:44.812Z,7.57
2023-03-22T07:10:12.965Z,7.97
2023-03-22T07:12:41.035Z,7.37
2023-03-22T07:15:10.372Z,8.17
2023-03-22T07:17:41.284Z,8.47
2023-03-22T07:20:10.911Z,8.37
2023-03-22T07:22:38.918Z,7.10
2023-03-22T07:25:09.822Z,6.87
2023-03-22T07:27:37.942Z,6.17
2023-03-22T07:30:09.642Z,7.27
2023-03-22T07:32:39.988Z,8.57
2023-03-22T07:35:08.926Z,8.50
2023-03-22T07:37:36.922Z,7.10
2023-03-22T07:40:09.801Z,6.83
2023-03-22T07:42:37.875Z,6.77
2023-03-22T07:45:08.032Z,6.60
2023-03-22T07:47:41.248Z,6.20
2023-03-22T07:50:14.542Z,8.50
2023-03-22T07:52:42.979Z,8.13
2023-03-22T07:55:15.342Z,6.43
2023-03-22T07:57:43.405Z,6.50
2023-03-22T08:00:12.906Z,5.53
2023-03-22T08:02:40.851Z,5.67
2023-03-22T08:05:09.717Z,5.20
2023-03-22T08:07:38.023Z,5.33
2023-03-22T08:10:06.819Z,5.63
2023-03-22T08:12:36.429Z,5.50
2023-03-22T08:15:04.990Z,5.90
2023-03-22T08:17:33.088Z,5.33
2023-03-22T08:20:01.400Z,4.43
2023-03-22T08:22:29.880Z,5.07
2023-03-22T08:24:57.939Z,4.60
2023-03-22T08:27:26.216Z,3.67
2023-03-22T08:29:55.824Z,4.87
2023-03-22T08:32:23.844Z,4.70
2023-03-22T08:34:52.753Z,4.47
2023-03-22T08:37:21.232Z,3.90
2023-03-22T08:39:49.479Z,5.10
2023-03-22T08:42:17.511Z,5.30
2023-03-22T08:44:46.050Z,4.30
2023-03-22T08:47:15.464Z,5.20
2023-03-22T08:49:43.485Z,4.93
2023-03-22T08:52:11.499Z,5.47
2023-03-22T08:54:39.558Z,4.87
2023-03-22T08:57:09.244Z,4.50
2023-03-22T08:59:37.219Z,4.67
2023-03-22T09:02:05.694Z,4.27
2023-03-22T09:04:35.182Z,4.10
2023-03-22T09:07:03.234Z,4.70
2023-03-22T09:09:31.312Z,4.47
2023-03-22T09:11:59.425Z,5.17
2023-03-22T09:14:27.488Z,3.57
2023-03-22T09:16:55.712Z,4.67
2023-03-22T09:19:23.735Z,4.23
2023-03-22T09:21:53.078Z,4.33
2023-03-22T09:24:21.643Z,4.47
2023-03-22T09:26:49.766Z,4.47
2023-03-22T09:29:19.354Z,3.70
2023-03-22T09:31:48.903Z,4.40
2023-03-22T09:34:17.735Z,4.47
2023-03-22T09:36:46.178Z,4.90
2023-03-22T09:39:16.188Z,4.90
2023-03-22T09:41:50.248Z,4.40
2023-03-22T09:44:26.728Z,3.87
2023-03-22T09:46:57.259Z,4.13
2023-03-22T09:49:33.228Z,5.23
2023-03-22T09:52:07.917Z,4.10
2023-03-22T09:54:40.295Z,4.30
2023-03-22T09:57:12.357Z,4.30
2023-03-22T09:59:46.565Z,3.60
2023-03-22T10:02:47.063Z,3.40
2023-03-22T10:05:22.900Z,2.97
2023-03-22T10:08:11.145Z,2.67
2023-03-22T10:10:41.961Z,2.50
2023-03-22T10:13:19.935Z,2.63
2023-03-22T10:15:51.541Z,2.93
2023-03-22T10:18:23.361Z,3.40
2023-03-22T10:20:59.191Z,3.00
2023-03-22T10:23:32.759Z,2.90
2023-03-22T10:26:04.674Z,1.90
2023-03-22T10:28:39.443Z,2.97
2023-03-22T10:31:10.953Z,2.03
2023-03-22T10:33:50.074Z,3.10
2023-03-22T10:36:22.310Z,1.83
2023-03-22T10:38:55.726Z,1.63
2023-03-22T10:41:27.078Z,1.87
2023-03-22T10:43:58.258Z,2.03
2023-03-22T10:46:30.205Z,2.50
2023-03-22T10:49:01.078Z,1.77
2023-03-22T10:51:33.628Z,2.30
2023-03-22T10:54:02.605Z,1.70
2023-03-22T10:56:32.124Z,1.87
2023-03-22T10:59:00.237Z,1.60
2023-03-22T11:01:31.836Z,1.50
2023-03-22T11:04:07.958Z,1.30
2023-03-22T11:06:44.215Z,1.93
2023-03-22T11:09:18.573Z,1.30
2023-03-22T11:11:53.476Z,1.43
2023-03-22T11:14:28.919Z,1.23
2023-03-22T11:17:00.879Z,1.77
2023-03-22T11:19:34.791Z,1.47
2023-03-22T11:22:07.453Z,1.50
2023-03-22T11:24:36.049Z,1.00
2023-03-22T11:27:08.978Z,1.70
2023-03-22T11:29:43.523Z,1.50
2023-03-22T11:32:27.567Z,1.40
2023-03-22T11:35:03.258Z,1.87
2023-03-22T11:37:31.832Z,1.30
2023-03-22T11:40:04.902Z,1.23
2023-03-22T11:42:36.574Z,1.83
2023-03-22T11:45:05.137Z,1.40
2023-03-22T11:47:39.214Z,1.20
2023-03-22T11:50:10.920Z,1.43
2023-03-22T11:52:39.015Z,1.10
2023-03-22T11:55:08.055Z,1.33
2023-03-22T11:57:38.377Z,1.30
2023-03-22T12:00:15.076Z,1.33
2023-03-22T12:02:47.738Z,1.07
2023-03-22T12:05:22.355Z,1.27
2023-03-22T12:07:56.251Z,1.33
2023-03-22T12:10:30.183Z,1.00
2023-03-22T12:13:05.968Z,1.00
2023-03-22T12:15:39.999Z,1.40
2023-03-22T12:18:14.706Z,1.30
2023-03-22T12:20:49.707Z,1.10
2023-03-22T12:23:21.086Z,1.20
2023-03-22T12:25:52.801Z,1.20
2023-03-22T12:28:27.262Z,1.07
2023-03-22T12:30:58.622Z,1.70
2023-03-22T12:33:30.940Z,1.37
2023-03-22T12:36:02.073Z,1.10
2023-03-22T12:38:38.777Z,1.17
2023-03-22T12:41:12.251Z,1.13
2023-03-22T12:43:49.899Z,1.00
2023-03-22T12:46:22.650Z,0.90
2023-03-22T12:48:55.501Z,1.10
2023-03-22T12:51:23.688Z,1.37
2023-03-22T12:53:56.836Z,0.90
2023-03-22T12:56:29.233Z,1.10
2023-03-22T12:59:02.665Z,1.27
2023-03-22T13:01:38.108Z,0.90
2023-03-22T13:04:31.630Z,1.03
2023-03-22T13:07:12.398Z,1.00
2023-03-22T13:09:44.147Z,1.10
2023-03-22T13:12:31.795Z,1.10
2023-03-22T13:15:23.839Z,1.20
2023-03-22T13:17:58.898Z,1.00
2023-03-22T13:20:34.574Z,1.10
2023-03-22T13:23:12.102Z,0.90
2023-03-22T13:25:59.677Z,1.00
2023-03-22T13:28:30.926Z,1.23
2023-03-22T13:31:01.471Z,1.57
2023-03-22T13:33:32.238Z,1.07
2023-03-22T13:36:08.531Z,1.00
2023-03-22T13:38:42.732Z,1.17
2023-03-22T13:41:22.889Z,0.90
2023-03-22T13:43:53.462Z,1.00
2023-03-22T13:46:46.752Z,1.20
2023-03-22T13:49:48.059Z,1.20
2023-03-22T13:52:31.148Z,0.93
2023-03-22T13:54:59.962Z,1.03
2023-03-22T13:57:59.847Z,1.07
2023-03-22T14:00:44.837Z,0.93
2023-03-22T14:03:29.716Z,1.00
2023-03-22T14:06:13.115Z,1.20
2023-03-22T14:08:44.565Z,1.00
2023-03-22T14:11:24.063Z,0.90
2023-03-22T14:13:57.077Z,1.20
2023-03-22T14:16:37.871Z,1.23
2023-03-22T14:19:09.862Z,0.70
2023-03-22T14:21:43.042Z,0.70
